createdAt,value
2019-05-28T00:00:26.432Z,5.73
2019-05-28T00:02:54.922Z,5.50
2019-05-28T00:05:23.390Z,7.43
2019-05-28T00:07:51.813Z,8.57
2019-05-28T00:10:20.345Z,5.73
2019-05-28T00:12:48.742Z,4.80
2019-05-28T00:15:17.005Z,8.00
2019-05-28T00:17:45.407Z,7.30
2019-05-28T00:20:14.351Z,6.80
2019-05-28T00:22:42.774Z,7.67
2019-05-28T00:25:11.621Z,7.27
2019-05-28T00:27:40.065Z,5.97
2019-05-28T00:30:19.759Z,8.27
2019-05-28T00:32:39.854Z,8.77
2019-05-28T00:35:08.670Z,7.80
2019-05-28T00:37:36.755Z,8.10
2019-05-28T00:40:08.438Z,9.07
2019-05-28T00:42:36.849Z,7.00
2019-05-28T00:45:09.915Z,7.47
2019-05-28T00:47:38.387Z,6.13
2019-05-28T00:50:08.923Z,9.33
2019-05-28T00:52:37.678Z,5.20
2019-05-28T00:55:07.630Z,8.83
2019-05-28T00:57:36.364Z,9.27
2019-05-28T01:00:07.835Z,7.50
2019-05-28T01:02:36.234Z,9.57
2019-05-28T01:05:06.288Z,9.70
2019-05-28T01:07:34.759Z,7.13
2019-05-28T01:10:05.311Z,8.20
2019-05-28T01:12:33.711Z,8.57
2019-05-28T01:15:02.124Z,12.87
2019-05-28T01:17:30.523Z,8.10
2019-05-28T01:19:58.927Z,8.43
2019-05-28T01:22:27.763Z,7.80
2019-05-28T01:24:56.165Z,8.73
2019-05-28T01:27:24.567Z,9.57
2019-05-28T01:29:52.975Z,5.47
2019-05-28T01:32:21.435Z,9.57
2019-05-28T01:34:49.830Z,7.77
2019-05-28T01:37:18.250Z,8.60
2019-05-28T01:39:46.647Z,6.17
2019-05-28T01:42:15.047Z,7.17
2019-05-28T01:44:43.451Z,8.67
2019-05-28T01:47:11.872Z,8.23
2019-05-28T01:49:40.271Z,5.57
2019-05-28T01:52:08.670Z,6.67
2019-05-28T01:54:37.095Z,13.87
2019-05-28T01:57:05.501Z,7.80
2019-05-28T01:59:33.902Z,6.03
2019-05-28T02:02:02.338Z,7.00
2019-05-28T02:04:30.743Z,7.27
2019-05-28T02:06:59.148Z,7.27
2019-05-28T02:09:27.578Z,8.70
2019-05-28T02:11:55.970Z,5.33
2019-05-28T02:14:24.386Z,5.37
2019-05-28T02:16:52.820Z,8.20
2019-05-28T02:19:21.214Z,8.43
2019-05-28T02:21:49.614Z,7.70
2019-05-28T02:24:18.114Z,5.53
2019-05-28T02:26:46.518Z,8.70
2019-05-28T02:29:14.918Z,6.60
2019-05-28T02:31:43.331Z,11.20
2019-05-28T02:34:11.738Z,6.97
2019-05-28T02:36:40.155Z,10.07
2019-05-28T02:39:09.411Z,5.90
2019-05-28T02:41:37.827Z,6.93
2019-05-28T02:44:06.290Z,7.23
2019-05-28T02:46:34.710Z,6.63
2019-05-28T02:49:03.114Z,5.93
2019-05-28T02:51:31.954Z,8.07
2019-05-28T02:54:00.450Z,6.70
2019-05-28T02:56:31.340Z,7.37
2019-05-28T02:59:01.448Z,5.37
2019-05-28T03:01:42.956Z,7.93
2019-05-28T03:04:02.996Z,11.17
2019-05-28T03:06:34.019Z,6.63
2019-05-28T03:09:04.931Z,6.77
2019-05-28T03:11:33.350Z,7.40
2019-05-28T03:14:01.756Z,8.40
2019-05-28T03:16:33.228Z,5.97
2019-05-28T03:19:02.676Z,8.07
2019-05-28T03:21:34.389Z,9.93
2019-05-28T03:24:04.101Z,6.70
2019-05-28T03:26:32.671Z,6.03
2019-05-28T03:29:01.243Z,6.03
2019-05-28T03:31:30.032Z,11.70
2019-05-28T03:33:58.439Z,10.37
2019-05-28T03:36:29.057Z,10.73
2019-05-28T03:38:59.327Z,8.03
2019-05-28T03:41:27.743Z,5.60
2019-05-28T03:43:56.151Z,9.27
2019-05-28T03:46:24.563Z,7.63
2019-05-28T03:48:52.965Z,8.83
2019-05-28T03:51:21.368Z,12.80
2019-05-28T03:53:49.795Z,7.30
2019-05-28T03:56:18.203Z,7.90
2019-05-28T03:58:46.615Z,7.63
2019-05-28T04:01:15.048Z,7.80
2019-05-28T04:03:43.457Z,7.10
2019-05-28T04:06:11.856Z,11.50
2019-05-28T04:08:40.625Z,10.50
2019-05-28T04:11:09.027Z,9.33
2019-05-28T04:13:37.438Z,8.57
2019-05-28T04:16:05.864Z,10.90
2019-05-28T04:18:34.265Z,6.63
2019-05-28T04:21:02.666Z,6.03
2019-05-28T04:23:31.849Z,9.97
2019-05-28T04:26:00.255Z,7.50
2019-05-28T04:28:28.654Z,7.80
2019-05-28T04:30:57.062Z,9.13
2019-05-28T04:33:25.487Z,9.00
2019-05-28T04:35:53.975Z,7.90
2019-05-28T04:38:22.386Z,8.57
2019-05-28T04:40:50.790Z,5.30
2019-05-28T04:43:19.227Z,9.70
2019-05-28T04:45:47.715Z,8.63
2019-05-28T04:48:16.120Z,8.27
2019-05-28T04:50:44.523Z,9.20
2019-05-28T04:53:12.952Z,9.80
2019-05-28T04:55:41.454Z,7.13
2019-05-28T04:58:09.849Z,6.53
2019-05-28T05:00:38.271Z,8.67
2019-05-28T05:03:06.682Z,10.00
2019-05-28T05:05:35.099Z,5.47
2019-05-28T05:08:03.518Z,7.47
2019-05-28T05:10:31.926Z,8.07
2019-05-28T05:13:00.336Z,8.20
2019-05-28T05:15:28.739Z,7.47
2019-05-28T05:17:57.219Z,9.77
2019-05-28T05:20:25.627Z,9.17
2019-05-28T05:22:54.178Z,7.43
2019-05-28T05:25:23.066Z,13.80
2019-05-28T05:27:51.485Z,8.07
2019-05-28T05:30:19.954Z,9.03
2019-05-28T05:32:48.366Z,9.17
2019-05-28T05:35:17.111Z,10.17
2019-05-28T05:37:45.546Z,12.13
2019-05-28T05:40:14.988Z,8.33
2019-05-28T05:42:43.069Z,10.83
2019-05-28T05:45:11.415Z,9.87
2019-05-28T05:47:39.507Z,12.30
2019-05-28T05:50:08.448Z,9.17
2019-05-28T05:52:36.862Z,11.73
2019-05-28T05:55:07.568Z,7.40
2019-05-28T05:57:36.131Z,10.27
2019-05-28T06:00:06.479Z,12.47
2019-05-28T06:02:34.927Z,11.53
2019-05-28T06:05:06.251Z,12.37
2019-05-28T06:07:35.211Z,11.37
2019-05-28T06:10:06.680Z,12.57
2019-05-28T06:12:35.335Z,6.87
2019-05-28T06:15:05.902Z,6.47
2019-05-28T06:17:34.400Z,9.87
2019-05-28T06:20:03.975Z,10.03
2019-05-28T06:22:32.635Z,10.20
2019-05-28T06:25:01.034Z,6.93
2019-05-28T06:27:29.434Z,9.80
2019-05-28T06:29:57.842Z,12.63
2019-05-28T06:32:26.311Z,8.53
2019-05-28T06:34:54.715Z,8.83
2019-05-28T06:37:23.447Z,8.60
2019-05-28T06:39:51.787Z,6.97
2019-05-28T06:42:20.553Z,11.90
2019-05-28T06:44:48.974Z,9.73
2019-05-28T06:47:17.364Z,7.17
2019-05-28T06:49:45.444Z,6.60
2019-05-28T06:52:13.878Z,8.47
2019-05-28T06:54:42.275Z,7.33
2019-05-28T06:57:22.245Z,12.53
2019-05-28T06:59:40.878Z,9.90
2019-05-28T07:02:09.280Z,8.67
2019-05-28T07:04:37.707Z,7.07
2019-05-28T07:07:06.110Z,8.67
2019-05-28T07:09:34.515Z,7.40
2019-05-28T07:12:02.599Z,11.10
2019-05-28T07:14:31.252Z,10.60
2019-05-28T07:16:59.711Z,7.83
2019-05-28T07:19:28.147Z,11.17
2019-05-28T07:21:56.547Z,8.60
2019-05-28T07:24:24.951Z,9.73
2019-05-28T07:26:53.363Z,8.43
2019-05-28T07:29:21.763Z,7.87
2019-05-28T07:31:50.180Z,11.37
2019-05-28T07:34:30.325Z,7.43
2019-05-28T07:36:48.733Z,11.40
2019-05-28T07:39:17.142Z,12.37
2019-05-28T07:41:45.554Z,5.87
2019-05-28T07:44:13.959Z,7.20
2019-05-28T07:46:42.385Z,10.20
2019-05-28T07:49:10.852Z,11.23
2019-05-28T07:51:39.284Z,7.30
2019-05-28T07:54:07.683Z,8.07
2019-05-28T07:56:36.096Z,9.17
2019-05-28T07:59:04.571Z,6.73
2019-05-28T08:01:33.049Z,6.47
2019-05-28T08:04:01.116Z,8.03
2019-05-28T08:06:29.516Z,4.43
2019-05-28T08:08:58.008Z,9.03
2019-05-28T08:11:26.406Z,7.67
2019-05-28T08:13:54.818Z,6.17
2019-05-28T08:16:24.236Z,4.93
2019-05-28T08:18:52.912Z,9.53
2019-05-28T08:21:21.328Z,7.13
2019-05-28T08:23:49.731Z,5.07
2019-05-28T08:26:18.136Z,5.90
2019-05-28T08:28:46.553Z,4.37
2019-05-28T08:31:18.821Z,6.47
2019-05-28T08:33:45.076Z,5.50
2019-05-28T08:36:13.627Z,5.47
2019-05-28T08:38:42.030Z,5.30
2019-05-28T08:41:10.443Z,5.50
2019-05-28T08:43:38.521Z,7.37
2019-05-28T08:46:06.994Z,7.80
2019-05-28T08:48:35.394Z,6.87
2019-05-28T08:51:03.827Z,4.80
2019-05-28T08:53:32.241Z,5.97
2019-05-28T08:56:00.631Z,6.63
2019-05-28T08:58:29.054Z,6.07
2019-05-28T09:00:57.458Z,5.43
2019-05-28T09:03:25.856Z,6.53
2019-05-28T09:05:54.306Z,5.97
2019-05-28T09:08:37.849Z,6.27
2019-05-28T09:10:52.903Z,5.40
2019-05-28T09:13:21.376Z,4.40
2019-05-28T09:15:49.783Z,5.73
2019-05-28T09:18:18.182Z,6.70
2019-05-28T09:20:46.606Z,5.23
2019-05-28T09:23:15.144Z,4.17
2019-05-28T09:25:43.611Z,5.87
2019-05-28T09:28:28.613Z,4.57
2019-05-28T09:30:42.430Z,4.17
2019-05-28T09:33:10.882Z,4.50
2019-05-28T09:35:44.765Z,6.57
2019-05-28T09:38:09.570Z,6.07
2019-05-28T09:40:49.840Z,6.20
2019-05-28T09:43:08.097Z,6.67
2019-05-28T09:45:36.491Z,5.30
2019-05-28T09:48:05.030Z,6.70
2019-05-28T09:50:33.899Z,5.47
2019-05-28T09:53:02.368Z,4.97
2019-05-28T09:55:30.786Z,6.33
2019-05-28T09:57:59.192Z,6.23
2019-05-28T10:00:29.886Z,5.30
2019-05-28T10:02:58.352Z,9.27
2019-05-28T10:05:26.839Z,8.10
2019-05-28T10:07:55.243Z,10.17
2019-05-28T10:10:23.722Z,6.33
2019-05-28T10:12:52.137Z,6.27
2019-05-28T10:15:20.746Z,5.97
2019-05-28T10:17:49.154Z,7.40
2019-05-28T10:20:18.312Z,5.97
2019-05-28T10:22:46.739Z,8.97
2019-05-28T10:25:18.180Z,6.50
2019-05-28T10:28:00.391Z,9.47
2019-05-28T10:30:17.930Z,12.23
2019-05-28T10:32:46.339Z,9.57
2019-05-28T10:35:15.490Z,8.83
2019-05-28T10:37:43.960Z,7.57
2019-05-28T10:40:13.046Z,7.43
2019-05-28T10:42:41.455Z,6.20
2019-05-28T10:45:11.131Z,7.93
2019-05-28T10:47:39.531Z,10.73
2019-05-28T10:50:09.028Z,6.97
2019-05-28T10:52:37.548Z,6.57
2019-05-28T10:55:07.845Z,7.20
2019-05-28T10:57:36.349Z,8.07
2019-05-28T11:00:09.345Z,7.70
2019-05-28T11:02:37.803Z,6.43
2019-05-28T11:05:08.271Z,7.10
2019-05-28T11:07:36.718Z,6.27
2019-05-28T11:10:22.599Z,7.00
2019-05-28T11:12:37.488Z,6.03
2019-05-28T11:15:08.499Z,6.90
2019-05-28T11:17:36.919Z,10.33
2019-05-28T11:20:07.861Z,7.30
2019-05-28T11:22:36.263Z,6.33
2019-05-28T11:25:06.791Z,9.50
2019-05-28T11:27:35.197Z,7.83
2019-05-28T11:30:05.188Z,6.63
2019-05-28T11:32:33.662Z,7.03
2019-05-28T11:35:02.073Z,6.80
2019-05-28T11:37:30.551Z,8.10
2019-05-28T11:39:58.949Z,7.47
2019-05-28T11:42:27.423Z,7.33
2019-05-28T11:44:55.831Z,7.13
2019-05-28T11:47:24.284Z,9.37
2019-05-28T11:49:52.736Z,7.27
2019-05-28T11:52:21.136Z,7.50
2019-05-28T11:54:49.625Z,7.53
2019-05-28T11:57:18.032Z,7.10
2019-05-28T11:59:46.495Z,9.30
2019-05-28T12:02:14.924Z,8.63
2019-05-28T12:04:43.386Z,8.70
2019-05-28T12:07:24.975Z,11.33
2019-05-28T12:09:41.920Z,5.83
2019-05-28T12:12:10.639Z,6.77
2019-05-28T12:14:39.055Z,7.23
2019-05-28T12:17:07.148Z,6.90
2019-05-28T12:19:35.344Z,6.80
2019-05-28T12:22:03.758Z,7.63
2019-05-28T12:24:32.607Z,5.37
2019-05-28T12:27:01.371Z,5.43
2019-05-28T12:29:29.836Z,6.50
2019-05-28T12:31:58.852Z,7.57
2019-05-28T12:34:27.679Z,7.70
2019-05-28T12:36:56.156Z,8.90
2019-05-28T12:39:24.662Z,6.43
2019-05-28T12:42:01.666Z,8.90
2019-05-28T12:44:22.946Z,7.93
2019-05-28T12:46:51.348Z,6.23
2019-05-28T12:49:19.767Z,9.60
2019-05-28T12:51:48.171Z,7.10
2019-05-28T12:54:16.584Z,6.70
2019-05-28T12:56:44.996Z,6.97
2019-05-28T12:59:13.431Z,9.80
2019-05-28T13:01:41.843Z,8.97
2019-05-28T13:04:10.390Z,7.83
2019-05-28T13:06:39.211Z,12.30
2019-05-28T13:09:08.685Z,7.93
2019-05-28T13:11:37.138Z,8.30
2019-05-28T13:14:05.643Z,10.67
2019-05-28T13:16:34.195Z,10.53
2019-05-28T13:19:02.607Z,12.67
2019-05-28T13:21:31.032Z,11.50
2019-05-28T13:23:59.437Z,9.77
2019-05-28T13:26:27.841Z,9.67
2019-05-28T13:28:56.263Z,12.20
2019-05-28T13:31:24.898Z,11.10
2019-05-28T13:33:53.387Z,11.57
2019-05-28T13:36:21.795Z,10.57
2019-05-28T13:38:50.202Z,10.63
2019-05-28T13:41:18.595Z,9.47
2019-05-28T13:43:47.247Z,11.37
2019-05-28T13:46:15.655Z,10.23
2019-05-28T13:48:44.337Z,11.47
2019-05-28T13:51:12.763Z,10.10
2019-05-28T13:53:41.265Z,12.07
2019-05-28T13:56:09.733Z,10.47
2019-05-28T13:58:38.155Z,9.23
2019-05-28T14:01:06.567Z,11.40
2019-05-28T14:03:34.987Z,11.07
2019-05-28T14:06:03.402Z,9.17
2019-05-28T14:08:45.671Z,10.23
2019-05-28T14:11:01.983Z,9.33
2019-05-28T14:13:30.400Z,8.93
2019-05-28T14:15:58.803Z,10.47
2019-05-28T14:18:27.211Z,12.90
2019-05-28T14:20:55.648Z,9.37
2019-05-28T14:23:24.067Z,10.90
2019-05-28T14:25:52.492Z,9.53
2019-05-28T14:28:20.896Z,10.70
2019-05-28T14:30:59.558Z,9.17
2019-05-28T14:33:19.437Z,10.13
2019-05-28T14:35:47.839Z,10.83
2019-05-28T14:38:16.247Z,10.30
2019-05-28T14:40:44.735Z,13.33
2019-05-28T14:43:13.261Z,20.13
2019-05-28T14:45:41.679Z,14.60
2019-05-28T14:48:10.103Z,12.17
2019-05-28T14:50:38.510Z,12.77
2019-05-28T14:53:07.151Z,15.00
2019-05-28T14:55:35.839Z,13.87
2019-05-28T14:58:05.917Z,12.17
2019-05-28T15:00:34.663Z,14.03
2019-05-28T15:03:03.068Z,16.33
2019-05-28T15:05:31.640Z,14.10
2019-05-28T15:08:00.249Z,13.10
2019-05-28T15:10:29.000Z,13.33
2019-05-28T15:12:57.462Z,14.03
2019-05-28T15:15:36.036Z,15.73
2019-05-28T15:17:56.065Z,15.33
2019-05-28T15:20:24.536Z,14.20
2019-05-28T15:22:53.015Z,13.97
2019-05-28T15:25:21.598Z,15.10
2019-05-28T15:27:50.801Z,13.93
2019-05-28T15:30:20.342Z,12.77
2019-05-28T15:32:48.750Z,10.53
2019-05-28T15:35:17.446Z,11.10
2019-05-28T15:37:45.941Z,13.60
2019-05-28T15:40:14.976Z,15.43
2019-05-28T15:42:43.398Z,14.50
2019-05-28T15:45:12.467Z,16.40
2019-05-28T15:47:44.420Z,14.20
2019-05-28T15:50:12.339Z,18.60
2019-05-28T15:52:40.754Z,14.63
2019-05-28T15:55:10.608Z,15.80
2019-05-28T15:57:39.019Z,12.93
2019-05-28T16:00:09.479Z,11.47
2019-05-28T16:02:37.889Z,9.93
2019-05-28T16:05:09.827Z,11.23
2019-05-28T16:07:38.241Z,6.87
2019-05-28T16:10:08.979Z,7.63
2019-05-28T16:12:37.408Z,7.50
2019-05-28T16:15:08.058Z,7.63
2019-05-28T16:17:36.471Z,7.50
2019-05-28T16:20:08.067Z,8.50
2019-05-28T16:22:36.524Z,8.67
2019-05-28T16:25:07.075Z,7.63
2019-05-28T16:27:35.648Z,7.60
2019-05-28T16:30:06.047Z,7.93
2019-05-28T16:32:34.516Z,8.27
2019-05-28T16:35:03.392Z,8.73
2019-05-28T16:37:32.075Z,8.13
2019-05-28T16:40:13.940Z,8.37
2019-05-28T16:42:30.609Z,9.13
2019-05-28T16:44:59.023Z,9.27
2019-05-28T16:47:27.427Z,8.33
2019-05-28T16:49:55.828Z,9.37
2019-05-28T16:52:24.252Z,8.93
2019-05-28T16:54:52.735Z,8.67
2019-05-28T16:57:21.141Z,7.80
2019-05-28T16:59:49.608Z,8.43
2019-05-28T17:02:18.009Z,8.70
2019-05-28T17:04:46.506Z,8.60
2019-05-28T17:07:14.917Z,8.30
2019-05-28T17:09:43.324Z,8.73
2019-05-28T17:12:11.774Z,7.87
2019-05-28T17:14:40.216Z,8.40
2019-05-28T17:17:08.619Z,9.23
2019-05-28T17:19:37.015Z,8.83
2019-05-28T17:22:05.787Z,9.60
2019-05-28T17:24:34.430Z,9.50
2019-05-28T17:27:02.840Z,10.13
2019-05-28T17:29:31.248Z,9.87
2019-05-28T17:31:59.667Z,9.70
2019-05-28T17:34:28.069Z,9.33
2019-05-28T17:36:56.471Z,9.67
2019-05-28T17:39:24.887Z,10.07
2019-05-28T17:41:53.390Z,9.97
2019-05-28T17:44:21.795Z,10.23
2019-05-28T17:46:50.216Z,10.13
2019-05-28T17:49:18.606Z,10.63
2019-05-28T17:51:47.143Z,9.90
2019-05-28T17:54:15.550Z,9.33
2019-05-28T17:56:43.947Z,10.27
2019-05-28T17:59:12.373Z,10.50
2019-05-28T18:01:40.772Z,11.80
2019-05-28T18:04:09.183Z,10.57
2019-05-28T18:06:37.599Z,10.57
2019-05-28T18:09:07.964Z,10.37
2019-05-28T18:11:36.378Z,10.23
2019-05-28T18:14:04.859Z,9.80
2019-05-28T18:16:33.328Z,9.90
2019-05-28T18:19:01.723Z,10.07
2019-05-28T18:21:30.218Z,11.00
2019-05-28T18:23:58.624Z,10.33
2019-05-28T18:26:27.027Z,10.17
2019-05-28T18:28:55.447Z,10.10
2019-05-28T18:31:23.927Z,10.40
2019-05-28T18:33:52.330Z,9.40
2019-05-28T18:36:20.747Z,11.53
2019-05-28T18:38:49.157Z,11.07
2019-05-28T18:41:21.680Z,10.90
2019-05-28T18:43:47.724Z,13.50
2019-05-28T18:46:16.125Z,10.93
2019-05-28T18:48:44.535Z,11.30
2019-05-28T18:51:12.958Z,10.17
2019-05-28T18:53:41.359Z,11.23
2019-05-28T18:56:17.521Z,10.70
2019-05-28T18:58:40.096Z,10.77
2019-05-28T19:01:08.238Z,9.47
2019-05-28T19:03:36.643Z,12.93
2019-05-28T19:06:05.108Z,11.63
2019-05-28T19:08:33.583Z,11.70
2019-05-28T19:11:02.003Z,11.20
2019-05-28T19:13:30.460Z,9.20
2019-05-28T19:15:58.865Z,10.27
2019-05-28T19:18:27.279Z,11.40
2019-05-28T19:20:55.991Z,10.40
2019-05-28T19:23:24.554Z,9.90
2019-05-28T19:25:52.959Z,9.40
2019-05-28T19:28:21.855Z,15.00
2019-05-28T19:30:50.750Z,8.47
2019-05-28T19:33:19.533Z,9.67
2019-05-28T19:35:48.406Z,8.33
2019-05-28T19:38:16.731Z,7.47
2019-05-28T19:40:45.243Z,8.97
2019-05-28T19:43:13.648Z,10.30
2019-05-28T19:45:42.215Z,8.30
2019-05-28T19:48:10.784Z,8.20
2019-05-28T19:50:39.271Z,11.87
2019-05-28T19:53:07.702Z,13.27
2019-05-28T19:55:36.107Z,8.47
2019-05-28T19:58:05.045Z,8.93
2019-05-28T20:00:33.527Z,7.60
2019-05-28T20:03:01.927Z,8.07
2019-05-28T20:05:30.322Z,6.17
2019-05-28T20:07:58.744Z,6.87
2019-05-28T20:10:27.319Z,8.17
2019-05-28T20:12:55.754Z,7.00
2019-05-28T20:15:25.710Z,8.00
2019-05-28T20:17:54.696Z,8.20
2019-05-28T20:20:23.202Z,6.93
2019-05-28T20:22:51.932Z,7.40
2019-05-28T20:25:20.838Z,6.50
2019-05-28T20:27:49.689Z,8.13
2019-05-28T20:30:18.562Z,7.50
2019-05-28T20:32:46.963Z,7.27
2019-05-28T20:35:15.808Z,7.63
2019-05-28T20:37:44.233Z,8.40
2019-05-28T20:40:13.578Z,10.43
2019-05-28T20:42:42.083Z,8.47
2019-05-28T20:45:12.016Z,9.80
2019-05-28T20:47:40.714Z,8.87
2019-05-28T20:50:11.776Z,12.47
2019-05-28T20:52:40.501Z,11.87
2019-05-28T20:55:09.978Z,10.03
2019-05-28T20:57:38.382Z,8.10
2019-05-28T21:00:10.558Z,9.50
2019-05-28T21:02:39.036Z,13.50
2019-05-28T21:05:10.459Z,15.33
2019-05-28T21:07:39.018Z,10.67
2019-05-28T21:10:08.427Z,10.73
2019-05-28T21:12:43.731Z,8.90
2019-05-28T21:15:08.307Z,13.07
2019-05-28T21:17:36.720Z,8.90
2019-05-28T21:20:08.370Z,8.43
2019-05-28T21:22:36.781Z,8.83
2019-05-28T21:25:07.628Z,8.60
2019-05-28T21:27:36.174Z,11.30
2019-05-28T21:30:06.272Z,8.60
2019-05-28T21:32:34.760Z,9.20
2019-05-28T21:35:03.463Z,8.97
2019-05-28T21:37:31.910Z,9.23
2019-05-28T21:40:00.419Z,8.67
2019-05-28T21:42:28.887Z,8.63
2019-05-28T21:44:58.092Z,8.23
2019-05-28T21:47:26.692Z,11.53
2019-05-28T21:49:55.099Z,8.63
2019-05-28T21:52:23.506Z,9.00
2019-05-28T21:54:52.981Z,9.33
2019-05-28T21:57:21.509Z,8.80
2019-05-28T21:59:50.435Z,11.73
2019-05-28T22:02:19.075Z,11.53
2019-05-28T22:04:47.517Z,9.97
2019-05-28T22:07:16.054Z,8.73
2019-05-28T22:09:44.883Z,12.10
2019-05-28T22:12:13.377Z,11.73
2019-05-28T22:14:41.783Z,8.50
2019-05-28T22:17:13.032Z,8.30
2019-05-28T22:19:40.387Z,9.17
2019-05-28T22:22:08.957Z,11.70
2019-05-28T22:24:37.379Z,8.93
2019-05-28T22:27:05.790Z,10.03
2019-05-28T22:29:34.214Z,8.83
2019-05-28T22:32:02.887Z,9.43
2019-05-28T22:34:31.396Z,10.87
2019-05-28T22:37:00.313Z,10.00
2019-05-28T22:39:29.708Z,9.80
2019-05-28T22:41:59.507Z,9.30
2019-05-28T22:44:28.059Z,8.83
2019-05-28T22:46:57.038Z,9.40
2019-05-28T22:49:25.581Z,9.37
2019-05-28T22:51:54.067Z,7.93
2019-05-28T22:54:22.494Z,11.57
2019-05-28T22:56:50.919Z,7.50
2019-05-28T22:59:19.327Z,6.13
2019-05-28T23:01:47.736Z,6.53
2019-05-28T23:04:16.574Z,6.33
2019-05-28T23:06:44.994Z,5.93
2019-05-28T23:09:13.395Z,8.23
2019-05-28T23:11:41.790Z,6.00
2019-05-28T23:14:10.372Z,5.87
2019-05-28T23:16:39.103Z,6.37
2019-05-28T23:19:08.650Z,6.03
2019-05-28T23:21:37.187Z,5.93
2019-05-28T23:24:05.602Z,12.63
2019-05-28T23:26:34.019Z,7.00
2019-05-28T23:29:03.617Z,7.47
2019-05-28T23:31:32.099Z,9.17
2019-05-28T23:34:00.519Z,6.83
2019-05-28T23:36:28.930Z,7.93
2019-05-28T23:38:57.403Z,7.37
2019-05-28T23:41:25.795Z,7.57
2019-05-28T23:44:01.828Z,5.73
2019-05-28T23:46:24.327Z,8.83
2019-05-28T23:48:52.724Z,8.30
2019-05-28T23:51:22.022Z,8.93
2019-05-28T23:53:50.415Z,6.27
2019-05-28T23:56:18.815Z,11.17
2019-05-28T23:58:47.239Z,6.70
